Glasgow, MT (59230)

10:57 AM MST on December 07, 2016 (GMT -0700)
West Glasgow | | Change Station
Active Advisory: Wind Chill Advisory

Elev 2172 ft 48.22 °N, 106.65 °W | Updated 21 seconds ago

Overcast
Overcast
2.3 °F
Feels Like -15 °F
N
13.4
Wind Variable Wind from NW
Gusts 15.0 mph

Today
High -- | Low -- °F
--% Chance of Precip.
Yesterday
High -- | Low -- °F
Precip. -- in
Pressure 30.68 in
Visibility 10.0 miles
Clouds Overcast 8000 ft
Windchill -15 °F
Dew Point -10 °F
Humidity 57%
Rainfall 0.00 in
Snow Depth Not available.
7:43 AM 4:12 PM
First Quarter, 54% visible
METAR KGGW 071753Z AUTO 30021G29KT 10SM OVC080 M17/M22 A3049 RMK AO2 PK WND 30030/1736 SLP389 T11721222 11172 21189 51019
Pressure 30.68 in
Visibility 10.0 miles
Clouds Overcast 8000 ft
Windchill -15 °F
Dew Point -10 °F
Humidity 57%
Rainfall 0.00 in
Snow Depth Not available.
7:43 AM 4:12 PM
First Quarter, 54% visible
METAR KGGW 071753Z AUTO 30021G29KT 10SM OVC080 M17/M22 A3049 RMK AO2 PK WND 30030/1736 SLP389 T11721222 11172 21189 51019

10-Day Weather Forecast

Almanac

Astronomy

Dec. 07, 2016 Rise Set
Actual Time
Civil Twilight
Nautical Twilight
Astronomical Twilight
Moon
Length of Visible Light
Length of Day
Tomorrow will be .
, % of the Moon is Illuminated

Today's Extremes

State Highs State Lows

Community

WunderPhotos

Upload Photos

1,956,156 photos uploaded!

WunderBlog® & News

Nearby

Air Quality

  Air Quality AQ Index Pollutant
Not available.

Snow Depth

Station Depth Elevation

Earthquake Activity

City Distance Mag. Time & Date
Minimum magnitude displayed is 2.5.

Coastal Water Temperatures

Place Temperature

Stations

Nearby Weather Stations

Station Location Temp. Windchill Dew Point Humidity Wind Precip. Elev Updated Type
                   

Watches & Warnings

Wind Chill Advisory
Issued: 3:26 AM MST Dec. 7, 2016 – National Weather Service

... Wind Chill Advisory remains in effect until 11 am MST this
morning...

* winds... northwest 10 to 20 mph with gusts up to 30 mph.

* Temperatures... 4 below to 2 above zero.

* Wind chills... 20 below to 30 below zero.

* Timing... until 11 am MST today.

* Impacts... exposed skin can be frostbitten after 30 minutes of
exposure.

Precautionary/preparedness actions...

Try to dress adequately. Be sure to wear layered light weight and
wind proof clothing... and wear a hat and mittens for protection
from the dangers of frostbite.